Terminal Aerodrome Forecast
Issued by NWS Flagstaff, AZ

Home | Current Version | Previous Version | Text Only | Print | Product List | Glossary On
Versions: 1 2 3 4 5 6 7 8 9 10 11 12 13 14 15 16 17
464
FTUS45 KFGZ 251120
TAFFLG
TAF
KFLG 251120Z 2512/2612 VRB06KT P6SM FEW100
     FM251700 23010G15KT P6SM BKN060
      TEMPO 2519/2523 VRB10G20KT 5SM TSRA BKN040CB
     FM260100 VRB05KT P6SM SCT060=

USA.gov is the U.S. government's official web portal to all federal, state and local government web resources and services.